Airfield :
LOGIN :

Register | Disclaimer

   EN    FR    IT 

 










Legend :    VFR   Marginal VFR   IFR   Intensive IFR   Very Intensive IFR
Visi :
Ceiling :
>= 8 km
>= 3000ft
5 to 8 km
1000 to 3000 ft
1500m to 5 km
500 to 1000 ft
800 to 1500m
200 to 500 ft
< 800m
< 200 ft
Symbols :   Thunderstorms  Fog  Heavy snow  Heavy precipitations  Wind > 20 kt
SIGMETs :     Misc.  Thunderstorms  Icing  Turbulence  Mountain Waves  Volcanic Ashes







- Airport Elevation : -11 ft
- IATA code : AMS


EHAM - Amsterdam Schiphol

CURRENT METAR :
  • 221225Z 32017KT 9999 -SHRA FEW018 SCT024 BKN044 14/09 Q1027 NOSIG

EXPIRED METARs :
  • 221155Z 32018KT 9999 FEW022 SCT040 15/09 Q1027 NOSIG
  • 221125Z 33017KT 9999 FEW022 SCT038 15/09 Q1027 NOSIG
  • 221055Z 31013KT 9999 VCSH FEW018 BKN042 13/10 Q1026 RERA NOSIG
  • 221025Z 32016KT 9999 VCSH FEW018 SCT035 BKN048 14/10 Q1026 TEMPO 7000
  • 220955Z 32015KT 9000 -SHRA FEW012 SCT024 BKN030 13/10 Q1026 NOSIG

TAF TAF EHAM
Valid from the 22 at 12:00 until the 23 at 18:00 UTC


221101Z 2212/2318 32016G26KT 9999 SCT025
TEMPO 2212/2216 7000 -SHRA -RADZ FEW020TCU BKN025
BECMG 2217/2220 31008KT
PROB30
TEMPO 2305/2310 7000 -RADZ BKN025
No reported NOTAMs for that airfield.



MET'MAP, your aeronautical weather chart ! - Copyright ORBIFLY December 2007 - Disclaimer

ORBIFLY MET'MAP TEAM :

Programming & Development : Alexandra Zaïnal
Concept & Development : Baudouin d'Aumeries
Co-Development & Prog : Marc-Olivier Méhu
Technical & hardware support : Manuel Goepfert

Contact : metmap@orbifly.com




SOURCES & CREDITS :

   NOAA